Time;durP1;ratioP1;P1;durP2;ratioP2;P2;SDS_P1;SDS_P2;PMS_P1;PMS_P2;Temp;Humidity;BMP_temperature;BMP_pressure;BME280_temperature;BME280_humidity;BME280_pressure;Samples;Min_cycle;Max_cycle;Signal;HPM_P1;HPM_P2
2022/01/26 00:07:43;;;;;;;20.92;10.88;;;;;;;;;;4997152;28;20044;-77
2022/01/26 00:10:09;;;;;;;16.42;9.68;;;;;;;;;;4997056;28;20025;-77
2022/01/26 00:12:35;;;;;;;20.85;10.63;;;;;;;;;;5003861;28;20025;-77
2022/01/26 00:15:02;;;;;;;20.30;10.63;;;;;;;;;;5036788;28;20034;-78
2022/01/26 00:17:28;;;;;;;18.95;10.57;;;;;;;;;;5036648;28;20021;-77
2022/01/26 00:20:04;;;;;;;18.42;10.02;;;;;;;;;;5034157;28;20056;-77
2022/01/26 00:38:41;;;;;;;18.70;9.85;;;;;;;;;;5035330;28;20026;-77
2022/01/26 00:41:11;;;;;;;20.45;10.05;;;;;;;;;;5035206;28;20049;-77
2022/01/26 00:43:39;;;;;;;17.13;9.60;;;;;;;;;;5035227;28;20475;-77
2022/01/26 00:46:07;;;;;;;18.95;10.70;;;;;;;;;;5035107;28;20552;-77
2022/01/26 00:48:36;;;;;;;19.58;10.27;;;;;;;;;;5031805;28;20025;-78
2022/01/26 00:51:05;;;;;;;17.17;9.85;;;;;;;;;;5035699;28;20533;-78
2022/01/26 00:53:35;;;;;;;19.77;10.23;;;;;;;;;;5036029;28;20037;-78
2022/01/26 00:56:02;;;;;;;17.95;10.32;;;;;;;;;;5035173;28;20025;-77
2022/01/26 00:58:29;;;;;;;18.20;9.90;;;;;;;;;;5034259;28;20045;-77
2022/01/26 01:00:58;;;;;;;19.55;10.65;;;;;;;;;;5034590;28;20040;-77
2022/01/26 01:03:24;;;;;;;21.95;11.43;;;;;;;;;;5014661;28;20029;-78
2022/01/26 03:05:11;;;;;;;23.40;10.63;;;;;;;;;;5085183;28;20498;-77
2022/01/26 03:07:42;;;;;;;23.63;10.55;;;;;;;;;;5088096;28;20054;-77
2022/01/26 03:10:31;;;;;;;22.00;10.85;;;;;;;;;;5087112;28;20020;-77
2022/01/26 03:13:12;;;;;;;17.75;9.52;;;;;;;;;;5085953;28;20476;-77
2022/01/26 03:15:47;;;;;;;41.67;13.38;;;;;;;;;;5085505;28;20027;-77
2022/01/26 03:18:35;;;;;;;35.53;13.80;;;;;;;;;;5084800;28;20121;-77
2022/01/26 03:21:04;;;;;;;24.30;10.48;;;;;;;;;;5085290;28;20024;-77
2022/01/26 03:34:15;;;;;;;17.38;9.00;;;;;;;;;;5104718;28;20385;-77
2022/01/26 03:39:16;;;;;;;14.77;8.80;;;;;;;;;;5072677;28;20024;-77
2022/01/26 03:41:47;;;;;;;17.40;8.93;;;;;;;;;;5071166;28;20379;-77
2022/01/26 03:44:14;;;;;;;18.85;9.35;;;;;;;;;;5071612;28;20082;-77
2022/01/26 03:46:41;;;;;;;17.90;9.05;;;;;;;;;;5072119;28;20106;-77
2022/01/26 03:49:08;;;;;;;19.50;9.43;;;;;;;;;;5072300;28;20023;-76
2022/01/26 03:51:35;;;;;;;23.92;10.95;;;;;;;;;;5071209;28;20035;-77
2022/01/26 03:54:02;;;;;;;24.85;10.65;;;;;;;;;;5070844;28;20428;-78
2022/01/26 03:56:28;;;;;;;35.63;12.68;;;;;;;;;;5071439;28;20019;-77
2022/01/26 03:58:54;;;;;;;30.13;11.90;;;;;;;;;;5071555;28;20071;-76
2022/01/26 04:01:22;;;;;;;24.75;10.52;;;;;;;;;;5073536;28;20031;-77
2022/01/26 04:03:48;;;;;;;17.40;9.77;;;;;;;;;;5070991;28;20009;-77
2022/01/26 04:06:15;;;;;;;17.15;9.57;;;;;;;;;;5070698;28;20032;-77
2022/01/26 04:08:43;;;;;;;19.92;8.85;;;;;;;;;;5069454;28;20017;-77
2022/01/26 04:11:28;;;;;;;15.98;9.02;;;;;;;;;;5071147;28;20025;-77
2022/01/26 04:13:55;;;;;;;20.55;9.13;;;;;;;;;;5071434;28;20023;-77
2022/01/26 04:16:22;;;;;;;21.48;10.10;;;;;;;;;;5073512;28;20028;-77
2022/01/26 04:18:49;;;;;;;20.00;9.85;;;;;;;;;;5071984;28;20021;-77
2022/01/26 04:26:13;;;;;;;32.40;13.82;;;;;;;;;;5102866;28;20503;-77
2022/01/26 04:28:50;;;;;;;32.28;14.32;;;;;;;;;;5072911;28;20021;-77
2022/01/26 04:31:19;;;;;;;25.08;13.25;;;;;;;;;;5072466;28;20034;-77
2022/01/26 04:33:45;;;;;;;21.88;11.40;;;;;;;;;;5070435;28;20020;-77
2022/01/26 04:36:16;;;;;;;21.02;10.55;;;;;;;;;;5070373;28;20042;-77
2022/01/26 04:38:48;;;;;;;;;;;;;;;;;;5069779;28;20032;-77
2022/01/26 04:43:43;;;;;;;15.05;8.55;;;;;;;;;;5072803;28;20032;-78
2022/01/26 04:46:10;;;;;;;17.30;8.98;;;;;;;;;;5071301;28;20037;-77
2022/01/26 04:48:36;;;;;;;17.05;8.80;;;;;;;;;;5070040;28;20021;-77
2022/01/26 04:51:03;;;;;;;15.10;8.57;;;;;;;;;;5069954;28;20048;-77
2022/01/26 04:53:29;;;;;;;14.18;8.25;;;;;;;;;;5069992;28;20023;-78
2022/01/26 04:55:55;;;;;;;15.30;8.48;;;;;;;;;;5071727;28;20044;-77
2022/01/26 04:58:22;;;;;;;14.13;8.40;;;;;;;;;;5073155;28;20024;-77
2022/01/26 05:00:48;;;;;;;17.27;8.50;;;;;;;;;;5069629;28;20020;-78
2022/01/26 05:03:14;;;;;;;16.25;9.20;;;;;;;;;;5068867;28;20130;-77
2022/01/26 05:05:41;;;;;;;16.00;9.75;;;;;;;;;;5068386;28;20020;-78
2022/01/26 05:08:07;;;;;;;16.13;8.63;;;;;;;;;;5069649;28;20021;-77
2022/01/26 05:10:36;;;;;;;16.73;8.70;;;;;;;;;;5071258;28;20043;-78
2022/01/26 05:13:03;;;;;;;16.83;8.80;;;;;;;;;;5072334;28;20036;-78
2022/01/26 05:15:29;;;;;;;16.23;8.23;;;;;;;;;;5069145;28;20024;-77
2022/01/26 05:17:55;;;;;;;14.48;8.52;;;;;;;;;;5069385;28;20027;-77
2022/01/26 05:20:22;;;;;;;20.10;10.38;;;;;;;;;;5069521;28;20070;-78
2022/01/26 05:22:48;;;;;;;16.83;9.15;;;;;;;;;;5071179;28;20036;-77
2022/01/26 05:25:15;;;;;;;16.35;9.10;;;;;;;;;;5071386;28;20028;-78
2022/01/26 05:27:42;;;;;;;16.02;8.65;;;;;;;;;;5067908;28;20048;-78
2022/01/26 05:30:08;;;;;;;14.70;8.13;;;;;;;;;;5068878;28;20016;-78
2022/01/26 05:32:35;;;;;;;17.48;8.27;;;;;;;;;;5069232;28;20513;-78
2022/01/26 05:35:01;;;;;;;15.68;7.68;;;;;;;;;;5070608;28;20019;-78
2022/01/26 05:37:28;;;;;;;14.05;7.93;;;;;;;;;;5072583;28;20051;-78
2022/01/26 05:39:54;;;;;;;14.60;8.10;;;;;;;;;;5069604;28;20077;-78
2022/01/26 05:42:20;;;;;;;15.20;8.82;;;;;;;;;;5069282;28;20039;-78
2022/01/26 05:44:47;;;;;;;17.05;8.00;;;;;;;;;;5068767;28;20471;-78
2022/01/26 05:47:18;;;;;;;12.32;7.60;;;;;;;;;;5069125;28;20049;-77
2022/01/26 05:49:44;;;;;;;;;;;;;;;;;;5071361;28;20021;-78
2022/01/26 05:52:11;;;;;;;13.23;8.48;;;;;;;;;;5070443;28;19909;-78
2022/01/26 05:54:37;;;;;;;21.83;9.32;;;;;;;;;;5068875;28;20027;-77
2022/01/26 05:57:04;;;;;;;24.33;12.40;;;;;;;;;;5068810;28;20432;-77
2022/01/26 05:59:32;;;;;;;20.33;10.55;;;;;;;;;;5068636;28;20028;-78
2022/01/26 06:01:59;;;;;;;18.58;9.50;;;;;;;;;;5051999;28;20028;-78
2022/01/26 06:04:25;;;;;;;17.70;8.98;;;;;;;;;;5072526;28;20021;-77
2022/01/26 06:06:51;;;;;;;18.63;9.20;;;;;;;;;;5068519;28;20040;-78
2022/01/26 06:09:18;;;;;;;16.70;8.38;;;;;;;;;;5069134;28;20025;-78
2022/01/26 06:11:44;;;;;;;17.40;9.25;;;;;;;;;;5068674;28;20016;-78
2022/01/26 06:14:11;;;;;;;15.70;9.10;;;;;;;;;;5070286;28;20009;-77
2022/01/26 06:16:37;;;;;;;17.88;9.23;;;;;;;;;;5071020;28;20024;-77
2022/01/26 06:19:04;;;;;;;17.67;8.48;;;;;;;;;;5069786;28;20012;-77
2022/01/26 06:21:30;;;;;;;19.42;9.65;;;;;;;;;;5067587;28;20050;-78
2022/01/26 06:23:57;;;;;;;20.20;10.02;;;;;;;;;;5068648;28;20021;-77
2022/01/26 06:26:23;;;;;;;20.23;9.88;;;;;;;;;;5069729;28;20070;-78
2022/01/26 06:28:50;;;;;;;27.83;12.52;;;;;;;;;;5069860;28;20531;-77
2022/01/26 06:31:18;;;;;;;30.15;13.30;;;;;;;;;;5071030;28;20444;-78
2022/01/26 06:33:46;;;;;;;25.02;11.70;;;;;;;;;;5068569;28;20025;-77
2022/01/26 06:36:13;;;;;;;30.33;11.68;;;;;;;;;;5067311;28;20078;-77
2022/01/26 06:38:43;;;;;;;27.67;11.75;;;;;;;;;;5068320;28;20021;-77
2022/01/26 06:41:10;;;;;;;23.73;11.48;;;;;;;;;;5068349;28;20090;-77
2022/01/26 06:43:46;;;;;;;27.50;11.77;;;;;;;;;;5070843;28;20021;-78
2022/01/26 06:46:20;;;;;;;33.78;16.50;;;;;;;;;;5070051;28;20040;-78
2022/01/26 06:51:45;;;;;;;26.02;12.65;;;;;;;;;;5028695;28;20051;-77
2022/01/26 06:54:12;;;;;;;21.73;10.10;;;;;;;;;;5028953;28;20041;-78
2022/01/26 06:56:38;;;;;;;23.10;11.35;;;;;;;;;;5028684;28;20048;-78
2022/01/26 06:59:04;;;;;;;53.20;22.58;;;;;;;;;;5029327;28;20034;-77
2022/01/26 07:01:31;;;;;;;34.58;16.40;;;;;;;;;;5029377;28;20132;-77
2022/01/26 07:03:57;;;;;;;33.80;14.32;;;;;;;;;;5032833;28;20036;-78
2022/01/26 07:06:23;;;;;;;32.08;13.93;;;;;;;;;;5032685;28;20030;-77
2022/01/26 07:08:50;;;;;;;26.30;12.55;;;;;;;;;;5032544;28;20410;-78
2022/01/26 07:11:16;;;;;;;26.25;12.75;;;;;;;;;;5032583;28;20037;-77
2022/01/26 07:13:44;;;;;;;20.02;11.15;;;;;;;;;;5031049;28;20041;-78
2022/01/26 07:21:41;;;;;;;28.27;13.32;;;;;;;;;;5029210;28;20033;-76
2022/01/26 07:24:07;;;;;;;24.08;14.68;;;;;;;;;;5014266;28;20036;-77
2022/01/26 07:26:34;;;;;;;22.75;12.18;;;;;;;;;;5015220;28;20044;-77
2022/01/26 07:29:10;;;;;;;26.08;11.82;;;;;;;;;;5072669;28;20025;-77
2022/01/26 07:31:42;;;;;;;25.77;14.95;;;;;;;;;;5072938;28;20036;-77
2022/01/26 07:34:10;;;;;;;25.10;12.63;;;;;;;;;;5071425;28;20020;-77
2022/01/26 07:36:36;;;;;;;24.20;12.65;;;;;;;;;;5070045;28;20024;-77
2022/01/26 07:39:07;;;;;;;26.48;14.75;;;;;;;;;;5069203;28;20024;-77
2022/01/26 07:41:34;;;;;;;36.72;17.35;;;;;;;;;;5069108;28;20027;-77
2022/01/26 07:44:01;;;;;;;30.92;16.17;;;;;;;;;;5069749;28;20023;-77
2022/01/26 07:46:28;;;;;;;28.95;13.57;;;;;;;;;;5071557;28;20035;-76
2022/01/26 07:48:54;;;;;;;27.98;13.73;;;;;;;;;;5071198;28;20037;-77
2022/01/26 07:51:21;;;;;;;25.30;13.40;;;;;;;;;;5072583;28;20037;-77
2022/01/26 07:53:48;;;;;;;28.88;13.80;;;;;;;;;;5069281;28;20032;-76
2022/01/26 07:56:14;;;;;;;29.73;14.48;;;;;;;;;;5069926;28;20021;-76
2022/01/26 07:58:41;;;;;;;32.80;13.38;;;;;;;;;;5070948;28;20385;-76
2022/01/26 08:01:08;;;;;;;22.30;12.07;;;;;;;;;;5071148;28;20020;-76
2022/01/26 08:03:34;;;;;;;25.65;11.00;;;;;;;;;;5070364;28;20029;-76
2022/01/26 08:06:01;;;;;;;21.45;10.73;;;;;;;;;;5066572;28;20071;-77
2022/01/26 08:08:28;;;;;;;21.75;11.05;;;;;;;;;;5069955;28;20394;-76
2022/01/26 08:10:59;;;;;;;22.92;11.82;;;;;;;;;;5069315;28;20035;-76
2022/01/26 08:13:25;;;;;;;22.80;11.73;;;;;;;;;;5067872;28;20029;-77
2022/01/26 08:15:57;;;;;;;16.85;9.73;;;;;;;;;;5069994;28;20398;-77
2022/01/26 08:18:24;;;;;;;18.73;10.43;;;;;;;;;;5069692;28;20036;-76
2022/01/26 08:20:51;;;;;;;18.58;10.80;;;;;;;;;;5069223;28;20024;-75
2022/01/26 08:23:20;;;;;;;17.38;9.82;;;;;;;;;;5067315;28;20398;-76
2022/01/26 08:25:46;;;;;;;16.83;9.07;;;;;;;;;;5070777;28;20506;-77
2022/01/26 08:28:20;;;;;;;15.32;10.00;;;;;;;;;;5071028;28;20047;-76
2022/01/26 08:30:47;;;;;;;23.52;10.82;;;;;;;;;;5071159;28;20020;-76
2022/01/26 08:33:13;;;;;;;21.85;10.63;;;;;;;;;;5069058;28;20041;-75
2022/01/26 08:35:41;;;;;;;14.88;10.00;;;;;;;;;;5069020;28;20036;-75
2022/01/26 08:38:07;;;;;;;14.57;9.35;;;;;;;;;;5068632;28;20021;-76
2022/01/26 08:40:34;;;;;;;14.50;8.75;;;;;;;;;;5072112;28;20105;-75
2022/01/26 08:43:00;;;;;;;13.23;8.80;;;;;;;;;;5071587;28;20039;-76
2022/01/26 08:45:27;;;;;;;14.60;7.80;;;;;;;;;;5069002;28;20029;-75
2022/01/26 08:47:53;;;;;;;12.93;7.97;;;;;;;;;;5070998;28;20027;-75
2022/01/26 08:50:20;;;;;;;11.85;7.00;;;;;;;;;;5070514;28;20035;-75
2022/01/26 08:52:47;;;;;;;13.68;7.90;;;;;;;;;;5070606;28;20028;-75
2022/01/26 08:55:14;;;;;;;14.43;7.82;;;;;;;;;;5069848;28;20425;-75
2022/01/26 08:57:40;;;;;;;15.38;8.75;;;;;;;;;;5069182;28;20044;-74
2022/01/26 09:00:08;;;;;;;15.13;8.55;;;;;;;;;;5069456;28;20394;-75
2022/01/26 09:02:35;;;;;;;12.98;8.10;;;;;;;;;;5068668;28;20486;-75
2022/01/26 09:05:03;;;;;;;16.95;7.97;;;;;;;;;;5068513;28;20017;-75
2022/01/26 09:07:30;;;;;;;14.95;8.93;;;;;;;;;;5069525;28;20035;-75
2022/01/26 09:09:59;;;;;;;19.67;9.25;;;;;;;;;;5070986;28;20029;-76
2022/01/26 09:12:26;;;;;;;16.73;8.93;;;;;;;;;;5068527;28;20027;-76
2022/01/26 09:14:53;;;;;;;14.70;9.00;;;;;;;;;;5068305;28;20024;-76
2022/01/26 09:17:20;;;;;;;19.48;9.38;;;;;;;;;;5069519;28;20088;-76
2022/01/26 09:19:48;;;;;;;20.00;9.45;;;;;;;;;;5070159;28;20028;-76
2022/01/26 09:22:19;;;;;;;19.20;9.52;;;;;;;;;;5070290;28;20027;-76
2022/01/26 09:24:45;;;;;;;14.98;8.73;;;;;;;;;;5067640;28;20074;-76
2022/01/26 09:27:14;;;;;;;15.20;8.38;;;;;;;;;;5068065;28;20124;-76
2022/01/26 09:29:41;;;;;;;23.95;9.05;;;;;;;;;;5068129;28;20030;-75
2022/01/26 09:32:08;;;;;;;23.27;9.50;;;;;;;;;;5069628;28;20029;-74
2022/01/26 09:34:35;;;;;;;17.17;9.05;;;;;;;;;;5072397;28;20020;-75
2022/01/26 09:37:12;;;;;;;23.75;8.60;;;;;;;;;;5067424;28;20498;-74
2022/01/26 09:39:40;;;;;;;20.83;9.23;;;;;;;;;;5067380;28;20019;-74
2022/01/26 09:42:07;;;;;;;18.55;8.98;;;;;;;;;;5067718;28;20047;-74
2022/01/26 09:44:33;;;;;;;14.55;8.65;;;;;;;;;;5067350;28;20031;-74
2022/01/26 09:46:59;;;;;;;19.20;9.30;;;;;;;;;;5067654;28;20029;-74
2022/01/26 09:49:33;;;;;;;15.95;8.82;;;;;;;;;;5070333;28;20024;-73
2022/01/26 09:52:02;;;;;;;16.95;9.88;;;;;;;;;;5067999;28;20021;-74
2022/01/26 09:54:30;;;;;;;16.13;9.82;;;;;;;;;;5067089;28;20379;-74
2022/01/26 09:57:02;;;;;;;17.13;10.10;;;;;;;;;;5068418;28;20028;-74
2022/01/26 09:59:29;;;;;;;21.33;10.70;;;;;;;;;;5065406;28;20499;-74
2022/01/26 10:01:55;;;;;;;12.98;9.13;;;;;;;;;;5069119;28;20025;-74
2022/01/26 10:04:35;;;;;;;19.67;9.82;;;;;;;;;;5070558;28;20049;-74
2022/01/26 10:07:03;;;;;;;15.98;10.05;;;;;;;;;;5068469;28;20491;-75
2022/01/26 10:17:40;;;;;;;15.63;9.65;;;;;;;;;;5068019;28;20032;-74
2022/01/26 10:20:09;;;;;;;17.00;9.95;;;;;;;;;;5067767;28;20028;-74
2022/01/26 10:22:36;;;;;;;14.73;9.88;;;;;;;;;;5072696;28;20024;-74
2022/01/26 10:25:06;;;;;;;17.55;10.75;;;;;;;;;;5067803;28;20047;-74
2022/01/26 10:27:37;;;;;;;15.90;11.13;;;;;;;;;;5065622;28;20498;-74
2022/01/26 10:30:05;;;;;;;17.73;11.03;;;;;;;;;;5066900;28;20032;-74
2022/01/26 10:32:36;;;;;;;20.23;10.85;;;;;;;;;;5067441;28;20005;-73
2022/01/26 10:35:04;;;;;;;14.93;9.80;;;;;;;;;;5065541;28;20032;-73
2022/01/26 10:37:30;;;;;;;21.75;10.48;;;;;;;;;;5069296;28;20047;-73
2022/01/26 10:40:16;;;;;;;14.48;9.63;;;;;;;;;;5069560;28;20017;-73
2022/01/26 10:42:53;;;;;;;17.95;10.25;;;;;;;;;;5070730;28;20033;-73
2022/01/26 10:45:31;;;;;;;16.55;11.07;;;;;;;;;;5070819;28;20027;-73
2022/01/26 10:48:08;;;;;;;14.85;10.55;;;;;;;;;;5070474;28;20029;-73
2022/01/26 10:53:11;;;;;;;17.17;11.00;;;;;;;;;;5070757;28;20039;-73
2022/01/26 10:55:38;;;;;;;18.20;11.27;;;;;;;;;;5072679;28;20485;-74
2022/01/26 10:58:06;;;;;;;17.25;11.02;;;;;;;;;;5070094;28;20069;-73
2022/01/26 11:00:37;;;;;;;17.38;10.68;;;;;;;;;;5070519;28;20056;-73
2022/01/26 11:03:05;;;;;;;21.20;10.98;;;;;;;;;;5069839;28;20035;-73
2022/01/26 11:05:31;;;;;;;14.75;9.93;;;;;;;;;;5070113;28;20384;-74
2022/01/26 11:07:58;;;;;;;16.38;9.95;;;;;;;;;;5070827;28;20042;-74
2022/01/26 11:10:36;;;;;;;14.00;9.40;;;;;;;;;;5072379;28;20024;-74
2022/01/26 11:13:03;;;;;;;13.68;8.98;;;;;;;;;;5073769;28;20032;-73
2022/01/26 11:15:30;;;;;;;13.68;7.85;;;;;;;;;;5069059;28;20024;-74
2022/01/26 11:18:21;;;;;;;11.52;7.88;;;;;;;;;;5069909;28;20039;-74
2022/01/26 11:20:50;;;;;;;14.98;7.30;;;;;;;;;;5072637;28;20024;-74
2022/01/26 11:23:18;;;;;;;9.15;7.40;;;;;;;;;;5072912;28;20033;-74
2022/01/26 11:25:46;;;;;;;11.63;7.00;;;;;;;;;;5072519;28;20528;-73
2022/01/26 11:28:20;;;;;;;10.45;6.97;;;;;;;;;;5104822;28;20043;-74
2022/01/26 11:30:48;;;;;;;10.02;6.68;;;;;;;;;;5068799;28;20494;-74
2022/01/26 11:33:16;;;;;;;9.27;6.57;;;;;;;;;;5071029;28;20494;-74
2022/01/26 11:35:47;;;;;;;9.13;6.38;;;;;;;;;;5070248;28;20024;-75
2022/01/26 11:46:57;;;;;;;8.73;6.25;;;;;;;;;;5069654;28;20021;-74
2022/01/26 11:49:36;;;;;;;8.82;4.63;;;;;;;;;;5072512;28;20055;-72
2022/01/26 11:52:03;;;;;;;10.85;5.38;;;;;;;;;;5071055;28;20054;-75
2022/01/26 11:54:55;;;;;;;8.70;5.60;;;;;;;;;;5069323;28;20030;-71
2022/01/26 11:57:48;;;;;;;6.20;5.30;;;;;;;;;;5069890;28;20040;-71
2022/01/26 12:00:20;;;;;;;8.30;5.93;;;;;;;;;;5069144;28;20016;-74
2022/01/26 12:05:17;;;;;;;8.32;6.38;;;;;;;;;;5071507;28;20028;-74
2022/01/26 12:07:56;;;;;;;10.38;6.25;;;;;;;;;;5071115;28;20028;-74
2022/01/26 12:10:29;;;;;;;9.55;6.30;;;;;;;;;;5072565;28;20040;-71
2022/01/26 12:13:15;;;;;;;11.35;7.10;;;;;;;;;;5070011;28;20024;-71
2022/01/26 12:15:47;;;;;;;8.68;6.28;;;;;;;;;;5069431;28;20028;-74
2022/01/26 12:45:15;;;;;;;11.60;7.25;;;;;;;;;;5070261;28;20032;-74
2022/01/26 12:47:43;;;;;;;8.98;6.80;;;;;;;;;;5068103;28;20035;-71
2022/01/26 12:50:09;;;;;;;10.65;6.32;;;;;;;;;;5067746;28;20040;-71
2022/01/26 12:52:36;;;;;;;8.63;7.05;;;;;;;;;;5070670;28;20036;-71
2022/01/26 12:55:03;;;;;;;9.52;6.95;;;;;;;;;;5069903;28;20455;-71
2022/01/26 12:57:29;;;;;;;9.48;7.32;;;;;;;;;;5068809;28;20047;-71
2022/01/26 13:00:00;;;;;;;11.50;7.65;;;;;;;;;;5066347;28;20016;-71
2022/01/26 13:02:26;;;;;;;9.23;7.22;;;;;;;;;;5067703;28;20024;-71
2022/01/26 13:05:02;;;;;;;14.05;7.28;;;;;;;;;;5070125;28;20025;-71
2022/01/26 13:07:29;;;;;;;11.07;7.18;;;;;;;;;;5068034;28;20024;-70
2022/01/26 13:09:56;;;;;;;10.93;7.55;;;;;;;;;;5070500;28;20032;-71
2022/01/26 13:12:29;;;;;;;10.35;8.07;;;;;;;;;;5067170;28;20036;-71
2022/01/26 13:15:04;;;;;;;9.63;7.47;;;;;;;;;;5068520;28;20021;-71
2022/01/26 13:17:38;;;;;;;9.25;7.18;;;;;;;;;;5068382;28;20031;-71
2022/01/26 13:36:11;;;;;;;15.93;8.93;;;;;;;;;;5068105;28;20036;-71
2022/01/26 13:49:18;;;;;;;14.82;8.38;;;;;;;;;;5070333;28;20432;-71
2022/01/26 13:52:19;;;;;;;15.70;7.53;;;;;;;;;;5068085;28;20028;-70
2022/01/26 13:59:57;;;;;;;12.35;8.50;;;;;;;;;;5066976;28;20409;-73
2022/01/26 14:02:25;;;;;;;14.00;9.00;;;;;;;;;;5067714;28;20504;-73
2022/01/26 14:04:51;;;;;;;15.45;8.32;;;;;;;;;;5068022;28;20493;-73
2022/01/26 14:07:18;;;;;;;12.50;7.95;;;;;;;;;;5070094;28;20027;-70
2022/01/26 14:09:45;;;;;;;10.55;7.93;;;;;;;;;;5067666;28;20036;-71
2022/01/26 14:12:15;;;;;;;11.82;7.25;;;;;;;;;;5067517;28;20028;-73
2022/01/26 14:14:44;;;;;;;12.00;8.43;;;;;;;;;;5067716;28;20033;-73
2022/01/26 14:17:16;;;;;;;11.98;8.35;;;;;;;;;;5067008;28;20306;-74
2022/01/26 14:20:08;;;;;;;14.60;8.55;;;;;;;;;;5068556;28;20026;-73
2022/01/26 14:27:59;;;;;;;11.05;8.25;;;;;;;;;;5067636;28;20045;-73
2022/01/26 14:33:32;;;;;;;9.13;7.72;;;;;;;;;;5067656;28;20084;-73
2022/01/26 15:19:17;;;;;;;15.07;8.65;;;;;;;;;;5067359;28;20073;-73
2022/01/26 15:30:11;;;;;;;14.88;8.40;;;;;;;;;;5071385;28;20057;-72
2022/01/26 15:40:55;;;;;;;15.18;9.43;;;;;;;;;;5070550;28;20482;-73
2022/01/26 16:07:38;;;;;;;19.25;9.88;;;;;;;;;;5072270;28;20031;-73
2022/01/26 17:24:21;;;;;;;20.27;13.05;;;;;;;;;;5069077;28;20038;-73
2022/01/26 18:15:46;;;;;;;46.50;21.58;;;;;;;;;;5068358;28;20031;-73
2022/01/26 18:50:50;;;;;;;66.38;38.20;;;;;;;;;;5068066;28;20027;-73
2022/01/26 18:53:16;;;;;;;43.42;24.08;;;;;;;;;;5068100;28;20394;-73
2022/01/26 18:55:43;;;;;;;61.35;34.85;;;;;;;;;;5070217;28;20040;-73
2022/01/26 18:58:09;;;;;;;37.90;21.77;;;;;;;;;;5069141;28;20047;-74
2022/01/26 19:00:37;;;;;;;50.85;27.80;;;;;;;;;;5071317;28;20025;-73
2022/01/26 19:03:04;;;;;;;32.92;18.95;;;;;;;;;;5071662;28;20156;-73
2022/01/26 19:05:30;;;;;;;37.08;20.27;;;;;;;;;;5071714;28;20028;-73
2022/01/26 19:07:57;;;;;;;33.13;20.05;;;;;;;;;;5072544;28;20475;-73
2022/01/26 19:10:24;;;;;;;53.70;29.02;;;;;;;;;;5074222;28;20029;-73
2022/01/26 19:12:51;;;;;;;42.00;23.95;;;;;;;;;;5071428;28;20028;-73
2022/01/26 19:15:22;;;;;;;41.55;23.33;;;;;;;;;;5072556;28;20045;-73
2022/01/26 19:17:55;;;;;;;43.75;23.95;;;;;;;;;;5071428;28;20032;-73
2022/01/26 19:23:20;;;;;;;50.25;24.63;;;;;;;;;;5073514;28;20028;-74
2022/01/26 19:25:49;;;;;;;41.40;21.63;;;;;;;;;;5070292;28;20028;-74
2022/01/26 19:28:25;;;;;;;53.80;24.63;;;;;;;;;;5072690;28;20038;-73
2022/01/26 19:52:10;;;;;;;28.48;16.17;;;;;;;;;;5070686;28;20024;-74
2022/01/26 19:54:38;;;;;;;35.22;19.52;;;;;;;;;;5071034;28;20405;-74
2022/01/26 19:57:05;;;;;;;36.47;19.27;;;;;;;;;;5070678;28;20034;-73
2022/01/26 19:59:32;;;;;;;33.13;16.50;;;;;;;;;;5070638;28;20024;-73
2022/01/26 20:01:59;;;;;;;29.95;14.95;;;;;;;;;;5071441;28;20512;-73
2022/01/26 20:04:28;;;;;;;29.95;15.77;;;;;;;;;;5073803;28;20038;-73
2022/01/26 20:06:55;;;;;;;30.77;16.58;;;;;;;;;;5070485;28;20025;-74
2022/01/26 20:09:33;;;;;;;34.42;17.63;;;;;;;;;;5070213;28;20024;-74
2022/01/26 20:12:02;;;;;;;35.25;17.52;;;;;;;;;;5072199;28;20022;-73
2022/01/26 20:14:36;;;;;;;30.85;17.27;;;;;;;;;;5070219;28;20023;-74
2022/01/26 20:17:06;;;;;;;28.60;15.85;;;;;;;;;;5054684;28;20038;-73
2022/01/26 20:19:33;;;;;;;29.97;16.67;;;;;;;;;;5069748;28;20567;-74
2022/01/26 20:22:00;;;;;;;27.25;15.15;;;;;;;;;;5072273;28;20494;-73
2022/01/26 20:24:27;;;;;;;88.60;53.03;;;;;;;;;;5070571;28;20031;-74
2022/01/26 20:26:54;;;;;;;60.90;33.60;;;;;;;;;;5070050;28;20044;-74
2022/01/26 20:29:26;;;;;;;38.72;21.90;;;;;;;;;;5069966;28;20025;-73
2022/01/26 20:31:52;;;;;;;;;;;;;;;;;;5072053;28;20077;-74
2022/01/26 20:34:19;;;;;;;38.55;20.15;;;;;;;;;;5073675;28;19916;-74
2022/01/26 20:36:45;;;;;;;58.05;29.30;;;;;;;;;;5069951;28;20366;-74
2022/01/26 20:39:11;;;;;;;36.75;20.73;;;;;;;;;;5070163;28;20445;-74
2022/01/26 20:41:38;;;;;;;38.42;19.77;;;;;;;;;;5069414;28;20487;-76
2022/01/26 20:44:04;;;;;;;38.35;21.52;;;;;;;;;;5069758;28;20051;-74
2022/01/26 20:46:31;;;;;;;39.97;21.10;;;;;;;;;;5073333;28;20497;-74
2022/01/26 20:48:57;;;;;;;40.10;19.52;;;;;;;;;;5069571;28;20035;-74
2022/01/26 20:51:24;;;;;;;35.47;19.33;;;;;;;;;;5069717;28;20021;-73
2022/01/26 20:53:50;;;;;;;38.42;19.50;;;;;;;;;;5069709;28;20051;-73
2022/01/26 20:56:16;;;;;;;38.28;19.17;;;;;;;;;;5069334;28;20028;-73
2022/01/26 20:58:43;;;;;;;39.30;20.40;;;;;;;;;;5071870;28;20028;-75
2022/01/26 21:01:10;;;;;;;40.35;21.10;;;;;;;;;;5070641;28;20025;-73
2022/01/26 21:03:36;;;;;;;50.67;27.05;;;;;;;;;;5069492;28;20420;-73
2022/01/26 21:06:03;;;;;;;50.25;24.67;;;;;;;;;;5069425;28;20100;-73
2022/01/26 21:08:29;;;;;;;52.25;24.67;;;;;;;;;;5069512;28;20024;-74
2022/01/26 21:10:57;;;;;;;62.00;34.60;;;;;;;;;;5070419;28;20551;-74
2022/01/26 21:13:23;;;;;;;67.35;31.88;;;;;;;;;;5072729;28;20028;-74
2022/01/26 21:15:50;;;;;;;58.03;29.35;;;;;;;;;;5069161;28;20050;-74
2022/01/26 21:18:18;;;;;;;54.03;27.38;;;;;;;;;;5069324;28;20040;-74
2022/01/26 21:20:45;;;;;;;45.83;23.25;;;;;;;;;;5068442;28;20012;-74
2022/01/26 21:23:11;;;;;;;48.17;22.85;;;;;;;;;;5069245;28;20032;-74
2022/01/26 21:25:39;;;;;;;45.83;23.35;;;;;;;;;;5071158;28;20016;-73
2022/01/26 21:28:06;;;;;;;47.28;25.35;;;;;;;;;;5070033;28;20398;-74
2022/01/26 21:30:32;;;;;;;45.83;24.58;;;;;;;;;;5069001;28;20031;-74
2022/01/26 21:32:59;;;;;;;49.30;25.27;;;;;;;;;;5068856;28;20088;-74
2022/01/26 21:35:27;;;;;;;42.15;23.35;;;;;;;;;;5068932;28;20028;-73
2022/01/26 21:37:53;;;;;;;39.92;21.17;;;;;;;;;;5070386;28;20041;-74
2022/01/26 21:40:20;;;;;;;41.33;21.80;;;;;;;;;;5070677;28;20489;-74
2022/01/26 21:42:47;;;;;;;40.35;22.77;;;;;;;;;;5068688;28;20388;-73
2022/01/26 21:45:13;;;;;;;39.95;21.38;;;;;;;;;;5068601;28;20039;-74
2022/01/26 21:47:40;;;;;;;39.45;20.95;;;;;;;;;;5068687;28;20021;-74
2022/01/26 21:50:06;;;;;;;33.72;17.95;;;;;;;;;;5102565;28;20032;-73
2022/01/26 21:52:33;;;;;;;30.10;16.38;;;;;;;;;;5072163;28;20478;-74
2022/01/26 21:54:59;;;;;;;35.35;18.75;;;;;;;;;;5069988;28;20039;-74
2022/01/26 21:57:26;;;;;;;32.50;17.67;;;;;;;;;;5067343;28;20394;-74
2022/01/26 21:59:52;;;;;;;33.95;17.70;;;;;;;;;;5068592;28;20572;-74
2022/01/26 22:02:19;;;;;;;36.13;17.75;;;;;;;;;;5068372;28;20029;-73
2022/01/26 22:04:45;;;;;;;33.30;17.63;;;;;;;;;;5070783;28;20028;-74
2022/01/26 22:07:12;;;;;;;36.03;18.08;;;;;;;;;;5069874;28;20086;-74
2022/01/26 22:09:39;;;;;;;33.55;17.73;;;;;;;;;;5068086;28;20398;-73
2022/01/26 22:12:06;;;;;;;32.30;17.88;;;;;;;;;;5068311;28;20040;-74
2022/01/26 22:14:32;;;;;;;39.03;17.90;;;;;;;;;;5068421;28;20020;-74
2022/01/26 22:16:59;;;;;;;34.75;17.95;;;;;;;;;;5068936;28;20047;-74
2022/01/26 22:19:25;;;;;;;33.55;17.20;;;;;;;;;;5071337;28;20036;-74
2022/01/26 22:21:52;;;;;;;38.33;17.52;;;;;;;;;;5068305;28;20016;-74
2022/01/26 22:24:23;;;;;;;35.88;18.75;;;;;;;;;;5067987;28;20031;-74
2022/01/26 22:26:49;;;;;;;35.85;16.95;;;;;;;;;;5066902;28;20040;-74
2022/01/26 22:29:22;;;;;;;41.85;18.02;;;;;;;;;;5069769;28;20025;-74
2022/01/26 22:31:50;;;;;;;35.33;17.70;;;;;;;;;;5070504;28;20024;-74
2022/01/26 22:34:16;;;;;;;40.60;19.67;;;;;;;;;;5073984;28;20028;-74
2022/01/26 22:36:43;;;;;;;36.67;18.83;;;;;;;;;;5072317;28;20547;-74
2022/01/26 22:39:09;;;;;;;41.83;20.65;;;;;;;;;;5070585;28;20495;-74
2022/01/26 22:41:35;;;;;;;36.05;17.95;;;;;;;;;;5072518;28;20021;-74
2022/01/26 22:44:02;;;;;;;37.42;19.42;;;;;;;;;;5056618;28;20054;-74
2022/01/26 22:46:29;;;;;;;38.97;19.90;;;;;;;;;;5075243;28;20554;-74
2022/01/26 22:48:55;;;;;;;36.85;19.33;;;;;;;;;;5072121;28;20021;-74
2022/01/26 22:51:22;;;;;;;40.95;19.67;;;;;;;;;;5072045;28;20447;-73
2022/01/26 22:53:48;;;;;;;33.60;18.40;;;;;;;;;;5071627;28;20462;-74
2022/01/26 22:56:15;;;;;;;46.90;21.27;;;;;;;;;;5072087;28;20029;-74
2022/01/26 22:58:41;;;;;;;50.15;23.13;;;;;;;;;;5074342;28;20024;-74
2022/01/26 23:03:35;;;;;;;56.63;25.17;;;;;;;;;;5071795;28;20125;-74
2022/01/26 23:08:48;;;;;;;71.55;27.13;;;;;;;;;;5072562;28;20016;-74
2022/01/26 23:11:15;;;;;;;66.88;26.08;;;;;;;;;;5071801;28;20024;-74
2022/01/26 23:13:41;;;;;;;52.03;22.40;;;;;;;;;;5074129;28;20028;-74
2022/01/26 23:16:08;;;;;;;51.55;22.65;;;;;;;;;;5072418;28;20065;-74
2022/01/26 23:18:34;;;;;;;62.58;25.45;;;;;;;;;;5071484;28;20033;-73
2022/01/26 23:21:01;;;;;;;48.58;22.13;;;;;;;;;;5071617;28;20025;-74